sensor_id;sensor_type;location;lat;lon;timestamp;pressure;altitude;pressure_sealevel;temperature;humidity
21781;BME280;52576;53.614;9.894;2023-12-07T00:01:51;101479.81;;;0.43;100.00
21781;BME280;52576;53.614;9.894;2023-12-07T00:03:54;101484.97;;;0.43;100.00
21781;BME280;52576;53.614;9.894;2023-12-07T00:05:57;101495.28;;;0.45;100.00
21781;BME280;52576;53.614;9.894;2023-12-07T00:08:00;101485.78;;;0.47;100.00
21781;BME280;52576;53.614;9.894;2023-12-07T00:10:05;101487.50;;;0.48;100.00
21781;BME280;52576;53.614;9.894;2023-12-07T00:12:09;101487.50;;;0.48;100.00
21781;BME280;52576;53.614;9.894;2023-12-07T00:14:12;101489.22;;;0.49;100.00
21781;BME280;52576;53.614;9.894;2023-12-07T00:16:14;101472.03;;;0.48;100.00
21781;BME280;52576;53.614;9.894;2023-12-07T00:18:17;101492.66;;;0.48;100.00
21781;BME280;52576;53.614;9.894;2023-12-07T00:20:21;101484.94;;;0.48;100.00
21781;BME280;52576;53.614;9.894;2023-12-07T00:22:23;101494.38;;;0.49;100.00
21781;BME280;52576;53.614;9.894;2023-12-07T00:24:28;101494.38;;;0.49;100.00
21781;BME280;52576;53.614;9.894;2023-12-07T00:26:33;101495.25;;;0.48;100.00
21781;BME280;52576;53.614;9.894;2023-12-07T00:28:36;101495.25;;;0.46;100.00
21781;BME280;52576;53.614;9.894;2023-12-07T00:30:39;101497.84;;;0.45;100.00
21781;BME280;52576;53.614;9.894;2023-12-07T00:32:44;101499.59;;;0.43;100.00
21781;BME280;52576;53.614;9.894;2023-12-07T00:34:47;101493.59;;;0.42;100.00
21781;BME280;52576;53.614;9.894;2023-12-07T00:36:51;101502.19;;;0.41;100.00
21781;BME280;52576;53.614;9.894;2023-12-07T00:38:53;101500.50;;;0.40;100.00
21781;BME280;52576;53.614;9.894;2023-12-07T00:40:56;101497.91;;;0.40;100.00
21781;BME280;52576;53.614;9.894;2023-12-07T00:43:00;101504.78;;;0.40;100.00
21781;BME280;52576;53.614;9.894;2023-12-07T00:45:03;101501.38;;;0.38;100.00
21781;BME280;52576;53.614;9.894;2023-12-07T00:47:06;101501.38;;;0.38;100.00
21781;BME280;52576;53.614;9.894;2023-12-07T00:49:09;101507.41;;;0.38;100.00
21781;BME280;52576;53.614;9.894;2023-12-07T00:51:12;101508.25;;;0.39;100.00
21781;BME280;52576;53.614;9.894;2023-12-07T00:53:16;101503.94;;;0.39;100.00
21781;BME280;52576;53.614;9.894;2023-12-07T00:55:19;101503.94;;;0.39;100.00
21781;BME280;52576;53.614;9.894;2023-12-07T00:57:22;101503.94;;;0.41;100.00
21781;BME280;52576;53.614;9.894;2023-12-07T00:59:27;101505.66;;;0.40;100.00
21781;BME280;52576;53.614;9.894;2023-12-07T01:01:35;101503.06;;;0.42;100.00
21781;BME280;52576;53.614;9.894;2023-12-07T01:03:40;101511.63;;;0.44;100.00
21781;BME280;52576;53.614;9.894;2023-12-07T01:05:43;101510.75;;;0.45;100.00
21781;BME280;52576;53.614;9.894;2023-12-07T01:07:45;101518.50;;;0.45;100.00
21781;BME280;52576;53.614;9.894;2023-12-07T01:09:49;101520.19;;;0.46;100.00
21781;BME280;52576;53.614;9.894;2023-12-07T01:11:52;101527.06;;;0.47;100.00
21781;BME280;52576;53.614;9.894;2023-12-07T01:13:55;101532.19;;;0.50;100.00
21781;BME280;52576;53.614;9.894;2023-12-07T01:15:59;101540.78;;;0.49;100.00
21781;BME280;52576;53.614;9.894;2023-12-07T01:18:02;101533.06;;;0.49;100.00
21781;BME280;52576;53.614;9.894;2023-12-07T01:20:07;101533.94;;;0.48;100.00
21781;BME280;52576;53.614;9.894;2023-12-07T01:22:13;101538.22;;;0.49;100.00
21781;BME280;52576;53.614;9.894;2023-12-07T01:24:15;101540.78;;;0.49;100.00
21781;BME280;52576;53.614;9.894;2023-12-07T01:26:18;101539.09;;;0.48;100.00
21781;BME280;52576;53.614;9.894;2023-12-07T01:28:21;101538.22;;;0.49;100.00
21781;BME280;52576;53.614;9.894;2023-12-07T01:30:24;101541.66;;;0.49;99.92
21781;BME280;52576;53.614;9.894;2023-12-07T01:32:28;101542.50;;;0.50;100.00
21781;BME280;52576;53.614;9.894;2023-12-07T01:34:30;101543.34;;;0.50;99.94
21781;BME280;52576;53.614;9.894;2023-12-07T01:36:34;101547.66;;;0.50;100.00
21781;BME280;52576;53.614;9.894;2023-12-07T01:38:37;101547.66;;;0.50;100.00
21781;BME280;52576;53.614;9.894;2023-12-07T01:40:40;101554.56;;;0.48;99.75
21781;BME280;52576;53.614;9.894;2023-12-07T01:42:52;101559.72;;;0.48;99.91
21781;BME280;52576;53.614;9.894;2023-12-07T01:44:55;101554.56;;;0.48;100.00
21781;BME280;52576;53.614;9.894;2023-12-07T01:46:58;101559.72;;;0.48;99.91
21781;BME280;52576;53.614;9.894;2023-12-07T01:49:03;101553.69;;;0.49;99.92
21781;BME280;52576;53.614;9.894;2023-12-07T01:51:06;101551.97;;;0.48;100.00
21781;BME280;52576;53.614;9.894;2023-12-07T01:53:09;101557.97;;;0.50;100.00
21781;BME280;52576;53.614;9.894;2023-12-07T01:55:14;101557.97;;;0.50;99.81
21781;BME280;52576;53.614;9.894;2023-12-07T01:57:17;101557.97;;;0.50;99.88
21781;BME280;52576;53.614;9.894;2023-12-07T01:59:20;101552.81;;;0.50;99.71
21781;BME280;52576;53.614;9.894;2023-12-07T02:01:23;101559.69;;;0.49;99.99
21781;BME280;52576;53.614;9.894;2023-12-07T02:03:27;101550.25;;;0.50;99.70
21781;BME280;52576;53.614;9.894;2023-12-07T02:05:33;101552.81;;;0.50;99.53
21781;BME280;52576;53.614;9.894;2023-12-07T02:07:36;101551.09;;;0.50;99.79
21781;BME280;52576;53.614;9.894;2023-12-07T02:09:39;101556.22;;;0.52;99.90
21781;BME280;52576;53.614;9.894;2023-12-07T02:11:42;101558.75;;;0.53;99.64
21781;BME280;52576;53.614;9.894;2023-12-07T02:13:45;101556.22;;;0.52;99.60
21781;BME280;52576;53.614;9.894;2023-12-07T02:15:50;101559.69;;;0.51;99.62
21781;BME280;52576;53.614;9.894;2023-12-07T02:17:58;101557.09;;;0.51;99.71
21781;BME280;52576;53.614;9.894;2023-12-07T02:20:09;101561.38;;;0.52;99.74
21781;BME280;52576;53.614;9.894;2023-12-07T02:22:17;101564.84;;;0.51;99.68
21781;BME280;52576;53.614;9.894;2023-12-07T02:24:25;101558.75;;;0.53;99.80
21781;BME280;52576;53.614;9.894;2023-12-07T02:26:34;101567.34;;;0.54;99.68
21781;BME280;52576;53.614;9.894;2023-12-07T02:28:37;101567.34;;;0.54;99.63
21781;BME280;52576;53.614;9.894;2023-12-07T02:30:40;101566.47;;;0.55;99.69
21781;BME280;52576;53.614;9.894;2023-12-07T02:32:43;101566.47;;;0.55;99.69
21781;BME280;52576;53.614;9.894;2023-12-07T02:34:47;101575.06;;;0.55;99.70
21781;BME280;52576;53.614;9.894;2023-12-07T02:36:52;101575.06;;;0.57;99.42
21781;BME280;52576;53.614;9.894;2023-12-07T02:38:58;101571.59;;;0.58;99.71
21781;BME280;52576;53.614;9.894;2023-12-07T02:41:03;101581.06;;;0.59;99.62
21781;BME280;52576;53.614;9.894;2023-12-07T02:43:08;101573.31;;;0.59;99.45
21781;BME280;52576;53.614;9.894;2023-12-07T02:45:11;101571.59;;;0.58;99.63
21781;BME280;52576;53.614;9.894;2023-12-07T02:47:15;101572.47;;;0.57;99.55
21781;BME280;52576;53.614;9.894;2023-12-07T02:49:17;101577.63;;;0.58;99.45
21781;BME280;52576;53.614;9.894;2023-12-07T02:51:20;101573.31;;;0.59;99.61
21781;BME280;52576;53.614;9.894;2023-12-07T02:53:23;101573.31;;;0.59;99.63
21781;BME280;52576;53.614;9.894;2023-12-07T02:55:26;101580.19;;;0.58;99.56
21781;BME280;52576;53.614;9.894;2023-12-07T02:57:30;101576.75;;;0.58;99.42
21781;BME280;52576;53.614;9.894;2023-12-07T02:59:36;101581.91;;;0.58;99.39
21781;BME280;52576;53.614;9.894;2023-12-07T03:01:38;101582.78;;;0.57;99.45
21781;BME280;52576;53.614;9.894;2023-12-07T03:03:41;101581.06;;;0.57;99.42
21781;BME280;52576;53.614;9.894;2023-12-07T03:05:44;101580.22;;;0.57;99.45
21781;BME280;52576;53.614;9.894;2023-12-07T03:07:48;101578.50;;;0.56;99.59
21781;BME280;52576;53.614;9.894;2023-12-07T03:09:51;101576.78;;;0.56;99.53
21781;BME280;52576;53.614;9.894;2023-12-07T03:11:54;101590.53;;;0.57;99.49
21781;BME280;52576;53.614;9.894;2023-12-07T03:13:57;101589.66;;;0.58;99.53
21781;BME280;52576;53.614;9.894;2023-12-07T03:16:01;101601.69;;;0.59;99.45
21781;BME280;52576;53.614;9.894;2023-12-07T03:18:04;101592.22;;;0.61;99.64
21781;BME280;52576;53.614;9.894;2023-12-07T03:20:09;101593.91;;;0.62;99.48
21781;BME280;52576;53.614;9.894;2023-12-07T03:22:13;101593.91;;;0.62;99.43
21781;BME280;52576;53.614;9.894;2023-12-07T03:24:16;101594.75;;;0.62;99.58
21781;BME280;52576;53.614;9.894;2023-12-07T03:26:19;101593.91;;;0.62;99.53
21781;BME280;52576;53.614;9.894;2023-12-07T03:28:22;101590.47;;;0.61;99.62
21781;BME280;52576;53.614;9.894;2023-12-07T03:30:25;101583.63;;;0.59;99.52
21781;BME280;52576;53.614;9.894;2023-12-07T03:32:30;101592.25;;;0.58;99.21
21781;BME280;52576;53.614;9.894;2023-12-07T03:34:33;101593.09;;;0.57;99.29
21781;BME280;52576;53.614;9.894;2023-12-07T03:36:36;101588.81;;;0.56;99.31
21781;BME280;52576;53.614;9.894;2023-12-07T03:38:40;101586.25;;;0.56;99.16
21781;BME280;52576;53.614;9.894;2023-12-07T03:40:43;101585.38;;;0.57;99.47
21781;BME280;52576;53.614;9.894;2023-12-07T03:42:50;101587.09;;;0.58;99.36
21781;BME280;52576;53.614;9.894;2023-12-07T03:44:58;101593.06;;;0.60;99.41
21781;BME280;52576;53.614;9.894;2023-12-07T03:47:08;101595.66;;;0.60;99.36
21781;BME280;52576;53.614;9.894;2023-12-07T03:49:11;101590.50;;;0.60;99.46
21781;BME280;52576;53.614;9.894;2023-12-07T03:51:16;101592.22;;;0.61;99.33
21781;BME280;52576;53.614;9.894;2023-12-07T03:53:19;101593.03;;;0.63;99.28
21781;BME280;52576;53.614;9.894;2023-12-07T03:55:21;101589.59;;;0.62;99.46
21781;BME280;52576;53.614;9.894;2023-12-07T03:57:24;101599.03;;;0.65;99.52
21781;BME280;52576;53.614;9.894;2023-12-07T03:59:27;101588.72;;;0.65;99.47
21781;BME280;52576;53.614;9.894;2023-12-07T04:01:30;101586.16;;;0.63;99.40
21781;BME280;52576;53.614;9.894;2023-12-07T04:03:34;101593.88;;;0.65;99.38
21781;BME280;52576;53.614;9.894;2023-12-07T04:05:37;101594.75;;;0.64;99.40
21781;BME280;52576;53.614;9.894;2023-12-07T04:07:41;101599.91;;;0.64;99.31
21781;BME280;52576;53.614;9.894;2023-12-07T04:09:44;101598.16;;;0.66;99.19
21781;BME280;52576;53.614;9.894;2023-12-07T04:11:46;101600.75;;;0.66;99.49
21781;BME280;52576;53.614;9.894;2023-12-07T04:13:50;101614.47;;;0.68;99.30
21781;BME280;52576;53.614;9.894;2023-12-07T04:15:53;101611.03;;;0.69;99.53
21781;BME280;52576;53.614;9.894;2023-12-07T04:17:56;101601.56;;;0.70;99.47
21781;BME280;52576;53.614;9.894;2023-12-07T04:20:00;101607.56;;;0.72;99.47
21781;BME280;52576;53.614;9.894;2023-12-07T04:22:03;101604.97;;;0.72;99.32
21781;BME280;52576;53.614;9.894;2023-12-07T04:24:07;101595.50;;;0.72;99.27
21781;BME280;52576;53.614;9.894;2023-12-07T04:26:10;101598.94;;;0.74;99.40
21781;BME280;52576;53.614;9.894;2023-12-07T04:28:12;101604.09;;;0.74;99.42
21781;BME280;52576;53.614;9.894;2023-12-07T04:30:15;101597.19;;;0.75;99.36
21781;BME280;52576;53.614;9.894;2023-12-07T04:32:18;101595.47;;;0.75;99.12
21781;BME280;52576;53.614;9.894;2023-12-07T04:34:21;101595.47;;;0.75;99.43
21781;BME280;52576;53.614;9.894;2023-12-07T04:36:26;101604.06;;;0.77;99.34
21781;BME280;52576;53.614;9.894;2023-12-07T04:38:29;101609.22;;;0.77;99.34
21781;BME280;52576;53.614;9.894;2023-12-07T04:40:32;101610.88;;;0.78;99.32
21781;BME280;52576;53.614;9.894;2023-12-07T04:42:35;101611.72;;;0.80;99.23
21781;BME280;52576;53.614;9.894;2023-12-07T04:44:38;101608.28;;;0.81;99.02
21781;BME280;52576;53.614;9.894;2023-12-07T04:46:42;101616.00;;;0.81;99.39
21781;BME280;52576;53.614;9.894;2023-12-07T04:48:45;101616.00;;;0.81;99.35
21781;BME280;52576;53.614;9.894;2023-12-07T04:50:47;101624.63;;;0.80;99.29
21781;BME280;52576;53.614;9.894;2023-12-07T04:52:52;101628.94;;;0.80;99.35
21781;BME280;52576;53.614;9.894;2023-12-07T04:54:56;101632.38;;;0.79;99.15
21781;BME280;52576;53.614;9.894;2023-12-07T04:56:58;101631.53;;;0.78;99.28
21781;BME280;52576;53.614;9.894;2023-12-07T04:59:01;101622.13;;;0.77;99.17
21781;BME280;52576;53.614;9.894;2023-12-07T05:01:05;101628.13;;;0.78;99.26
21781;BME280;52576;53.614;9.894;2023-12-07T05:03:08;101637.56;;;0.79;99.35
21781;BME280;52576;53.614;9.894;2023-12-07T05:05:11;101634.13;;;0.78;99.12
21781;BME280;52576;53.614;9.894;2023-12-07T05:07:16;101636.69;;;0.78;99.12
21781;BME280;52576;53.614;9.894;2023-12-07T05:09:20;101638.41;;;0.79;99.09
21781;BME280;52576;53.614;9.894;2023-12-07T05:11:24;101642.72;;;0.79;99.06
21781;BME280;52576;53.614;9.894;2023-12-07T05:13:26;101645.28;;;0.80;99.02
21781;BME280;52576;53.614;9.894;2023-12-07T05:15:29;101645.28;;;0.80;99.28
21781;BME280;52576;53.614;9.894;2023-12-07T05:17:32;101643.56;;;0.79;99.15
21781;BME280;52576;53.614;9.894;2023-12-07T05:19:35;101641.84;;;0.78;99.17
21781;BME280;52576;53.614;9.894;2023-12-07T05:21:38;101640.13;;;0.80;99.20
21781;BME280;52576;53.614;9.894;2023-12-07T05:23:41;101644.41;;;0.80;99.34
21781;BME280;52576;53.614;9.894;2023-12-07T05:25:46;101641.81;;;0.81;99.01
21781;BME280;52576;53.614;9.894;2023-12-07T05:27:49;101651.28;;;0.82;99.24
21781;BME280;52576;53.614;9.894;2023-12-07T05:29:51;101646.97;;;0.81;99.14
21781;BME280;52576;53.614;9.894;2023-12-07T05:31:54;101650.44;;;0.80;99.13
21781;BME280;52576;53.614;9.894;2023-12-07T05:33:57;101647.84;;;0.82;99.26
21781;BME280;52576;53.614;9.894;2023-12-07T05:36:00;101651.28;;;0.81;99.06
21781;BME280;52576;53.614;9.894;2023-12-07T05:38:02;101645.28;;;0.80;99.06
21781;BME280;52576;53.614;9.894;2023-12-07T05:40:07;101644.41;;;0.80;98.95
21781;BME280;52576;53.614;9.894;2023-12-07T05:42:11;101647.00;;;0.80;99.17
21781;BME280;52576;53.614;9.894;2023-12-07T05:44:14;101648.72;;;0.81;99.12
21781;BME280;52576;53.614;9.894;2023-12-07T05:46:23;101646.13;;;0.81;99.05
21781;BME280;52576;53.614;9.894;2023-12-07T05:48:26;101644.41;;;0.80;99.32
21781;BME280;52576;53.614;9.894;2023-12-07T05:50:29;101644.41;;;0.81;99.14
21781;BME280;52576;53.614;9.894;2023-12-07T05:52:32;101652.16;;;0.81;99.10
21781;BME280;52576;53.614;9.894;2023-12-07T05:54:35;101644.41;;;0.81;99.13
21781;BME280;52576;53.614;9.894;2023-12-07T05:56:38;101650.41;;;0.83;99.00
21781;BME280;52576;53.614;9.894;2023-12-07T05:58:43;101645.25;;;0.83;99.22
21781;BME280;52576;53.614;9.894;2023-12-07T06:00:47;101645.25;;;0.83;99.08
21781;BME280;52576;53.614;9.894;2023-12-07T06:02:50;101650.41;;;0.83;99.09
21781;BME280;52576;53.614;9.894;2023-12-07T06:04:53;101645.25;;;0.83;99.08
21781;BME280;52576;53.614;9.894;2023-12-07T06:06:57;101651.25;;;0.84;98.90
21781;BME280;52576;53.614;9.894;2023-12-07T06:09:00;101652.09;;;0.84;98.97
21781;BME280;52576;53.614;9.894;2023-12-07T06:11:03;101642.63;;;0.85;98.82
21781;BME280;52576;53.614;9.894;2023-12-07T06:13:06;101648.66;;;0.85;99.21
21781;BME280;52576;53.614;9.894;2023-12-07T06:15:11;101654.69;;;0.84;98.93
21781;BME280;52576;53.614;9.894;2023-12-07T06:17:14;101647.81;;;0.83;98.97
21781;BME280;52576;53.614;9.894;2023-12-07T06:19:17;101648.69;;;0.82;98.93
21781;BME280;52576;53.614;9.894;2023-12-07T06:21:19;101647.81;;;0.83;99.05
21781;BME280;52576;53.614;9.894;2023-12-07T06:23:22;101646.97;;;0.81;99.12
21781;BME280;52576;53.614;9.894;2023-12-07T06:25:25;101652.16;;;0.81;98.85
21781;BME280;52576;53.614;9.894;2023-12-07T06:27:29;101649.56;;;0.81;99.00
21781;BME280;52576;53.614;9.894;2023-12-07T06:29:32;101657.31;;;0.81;99.07
21781;BME280;52576;53.614;9.894;2023-12-07T06:31:35;101665.91;;;0.80;99.05
21781;BME280;52576;53.614;9.894;2023-12-07T06:33:38;101659.88;;;0.81;99.10
21781;BME280;52576;53.614;9.894;2023-12-07T06:35:41;101659.88;;;0.81;99.23
21781;BME280;52576;53.614;9.894;2023-12-07T06:37:44;101659.00;;;0.82;99.13
21781;BME280;52576;53.614;9.894;2023-12-07T06:39:48;101674.50;;;0.82;99.07
21781;BME280;52576;53.614;9.894;2023-12-07T06:41:51;101671.03;;;0.83;99.07
21781;BME280;52576;53.614;9.894;2023-12-07T06:43:55;101674.47;;;0.85;99.18
21781;BME280;52576;53.614;9.894;2023-12-07T06:46:00;101677.03;;;0.85;99.24
21781;BME280;52576;53.614;9.894;2023-12-07T06:48:05;101683.03;;;0.87;99.27
21781;BME280;52576;53.614;9.894;2023-12-07T06:50:09;101675.28;;;0.89;99.35
21781;BME280;52576;53.614;9.894;2023-12-07T06:52:12;101678.72;;;0.89;99.25
21781;BME280;52576;53.614;9.894;2023-12-07T06:54:15;101681.31;;;0.89;99.29
21781;BME280;52576;53.614;9.894;2023-12-07T06:56:19;101679.59;;;0.88;99.17
21781;BME280;52576;53.614;9.894;2023-12-07T06:58:21;101679.59;;;0.88;99.14
21781;BME280;52576;53.614;9.894;2023-12-07T07:00:24;101677.88;;;0.87;99.29
21781;BME280;52576;53.614;9.894;2023-12-07T07:02:27;101683.03;;;0.87;99.30
21781;BME280;52576;53.614;9.894;2023-12-07T07:04:30;101684.78;;;0.85;99.09
21781;BME280;52576;53.614;9.894;2023-12-07T07:06:34;101690.81;;;0.84;99.14
21781;BME280;52576;53.614;9.894;2023-12-07T07:08:37;101692.53;;;0.84;99.29
21781;BME280;52576;53.614;9.894;2023-12-07T07:10:39;101690.84;;;0.83;99.02
21781;BME280;52576;53.614;9.894;2023-12-07T07:12:42;101691.69;;;0.83;99.00
21781;BME280;52576;53.614;9.894;2023-12-07T07:14:44;101691.69;;;0.83;99.09
21781;BME280;52576;53.614;9.894;2023-12-07T07:16:50;101694.28;;;0.83;99.13
21781;BME280;52576;53.614;9.894;2023-12-07T07:18:53;101701.13;;;0.84;99.20
21781;BME280;52576;53.614;9.894;2023-12-07T07:20:58;101701.13;;;0.86;99.24
21781;BME280;52576;53.614;9.894;2023-12-07T07:23:01;101707.13;;;0.86;99.22
21781;BME280;52576;53.614;9.894;2023-12-07T07:25:05;101708.84;;;0.87;99.17
21781;BME280;52576;53.614;9.894;2023-12-07T07:27:07;101707.13;;;0.86;99.33
21781;BME280;52576;53.614;9.894;2023-12-07T07:29:10;101698.53;;;0.87;99.29
21781;BME280;52576;53.614;9.894;2023-12-07T07:31:13;101698.53;;;0.87;99.06
21781;BME280;52576;53.614;9.894;2023-12-07T07:33:16;101699.41;;;0.86;99.33
21781;BME280;52576;53.614;9.894;2023-12-07T07:35:19;101700.28;;;0.85;99.33
21781;BME280;52576;53.614;9.894;2023-12-07T07:37:24;101701.97;;;0.86;99.22
21781;BME280;52576;53.614;9.894;2023-12-07T07:39:26;101699.38;;;0.88;99.27
21781;BME280;52576;53.614;9.894;2023-12-07T07:41:29;101700.22;;;0.88;99.37
21781;BME280;52576;53.614;9.894;2023-12-07T07:43:32;101698.50;;;0.90;99.22
21781;BME280;52576;53.614;9.894;2023-12-07T07:45:36;101710.53;;;0.91;99.47
21781;BME280;52576;53.614;9.894;2023-12-07T07:47:39;101698.47;;;0.93;99.57
21781;BME280;52576;53.614;9.894;2023-12-07T07:49:42;101703.59;;;0.95;99.39
21781;BME280;52576;53.614;9.894;2023-12-07T07:51:45;101708.75;;;0.96;99.69
21781;BME280;52576;53.614;9.894;2023-12-07T07:53:50;101714.78;;;0.97;99.65
21781;BME280;52576;53.614;9.894;2023-12-07T07:55:52;101713.88;;;0.99;99.61
21781;BME280;52576;53.614;9.894;2023-12-07T07:57:55;101722.47;;;1.01;99.59
21781;BME280;52576;53.614;9.894;2023-12-07T07:59:58;101717.31;;;1.01;99.61
21781;BME280;52576;53.614;9.894;2023-12-07T08:02:00;101722.41;;;1.05;99.65
21781;BME280;52576;53.614;9.894;2023-12-07T08:04:04;101725.81;;;1.07;99.69
21781;BME280;52576;53.614;9.894;2023-12-07T08:06:08;101716.34;;;1.07;99.70
21781;BME280;52576;53.614;9.894;2023-12-07T08:08:11;101724.06;;;1.09;99.76
21781;BME280;52576;53.614;9.894;2023-12-07T08:10:15;101722.31;;;1.11;99.70
21781;BME280;52576;53.614;9.894;2023-12-07T08:12:18;101724.88;;;1.12;99.71
21781;BME280;52576;53.614;9.894;2023-12-07T08:14:24;101718.00;;;1.13;99.53
21781;BME280;52576;53.614;9.894;2023-12-07T08:16:27;101721.44;;;1.13;99.48
21781;BME280;52576;53.614;9.894;2023-12-07T08:18:30;101722.28;;;1.14;99.57
21781;BME280;52576;53.614;9.894;2023-12-07T08:20:33;101733.47;;;1.14;99.31
21781;BME280;52576;53.614;9.894;2023-12-07T08:22:36;101735.19;;;1.15;99.35
21781;BME280;52576;53.614;9.894;2023-12-07T08:24:40;101736.84;;;1.19;99.48
21781;BME280;52576;53.614;9.894;2023-12-07T08:26:47;101736.81;;;1.22;99.43
21781;BME280;52576;53.614;9.894;2023-12-07T08:28:50;101738.50;;;1.26;99.40
21781;BME280;52576;53.614;9.894;2023-12-07T08:30:56;101739.31;;;1.30;99.46
21781;BME280;52576;53.614;9.894;2023-12-07T08:32:59;101735.78;;;1.34;99.45
21781;BME280;52576;53.614;9.894;2023-12-07T08:35:03;101734.00;;;1.39;99.64
21781;BME280;52576;53.614;9.894;2023-12-07T08:37:07;101733.09;;;1.43;99.42
21781;BME280;52576;53.614;9.894;2023-12-07T08:39:10;101743.38;;;1.48;99.56
21781;BME280;52576;53.614;9.894;2023-12-07T08:41:13;101737.28;;;1.52;99.51
21781;BME280;52576;53.614;9.894;2023-12-07T08:43:20;101735.53;;;1.55;99.38
21781;BME280;52576;53.614;9.894;2023-12-07T08:45:24;101736.31;;;1.59;99.43
21781;BME280;52576;53.614;9.894;2023-12-07T08:47:27;101744.88;;;1.62;99.27
21781;BME280;52576;53.614;9.894;2023-12-07T08:49:32;101743.06;;;1.67;99.30
21781;BME280;52576;53.614;9.894;2023-12-07T08:51:35;101737.84;;;1.72;99.23
21781;BME280;52576;53.614;9.894;2023-12-07T08:53:39;101736.94;;;1.75;99.22
21781;BME280;52576;53.614;9.894;2023-12-07T08:55:42;101730.03;;;1.77;99.27
21781;BME280;52576;53.614;9.894;2023-12-07T08:57:45;101737.78;;;1.77;98.88
21781;BME280;52576;53.614;9.894;2023-12-07T08:59:50;101733.47;;;1.77;98.92
21781;BME280;52576;53.614;9.894;2023-12-07T09:01:53;101736.03;;;1.79;98.67
21781;BME280;52576;53.614;9.894;2023-12-07T09:03:56;101732.59;;;1.78;98.63
21781;BME280;52576;53.614;9.894;2023-12-07T09:06:00;101738.63;;;1.79;98.67
21781;BME280;52576;53.614;9.894;2023-12-07T09:08:04;101735.19;;;1.77;98.38
21781;BME280;52576;53.614;9.894;2023-12-07T09:10:09;101736.13;;;1.73;98.31
21781;BME280;52576;53.614;9.894;2023-12-07T09:12:12;101735.31;;;1.69;98.24
21781;BME280;52576;53.614;9.894;2023-12-07T09:14:18;101740.50;;;1.67;98.08
21781;BME280;52576;53.614;9.894;2023-12-07T09:16:22;101737.94;;;1.66;98.04
21781;BME280;52576;53.614;9.894;2023-12-07T09:18:26;101742.25;;;1.65;97.99
21781;BME280;52576;53.614;9.894;2023-12-07T09:20:29;101747.41;;;1.65;98.05
21781;BME280;52576;53.614;9.894;2023-12-07T09:22:32;101747.41;;;1.65;98.15
21781;BME280;52576;53.614;9.894;2023-12-07T09:24:39;101750.81;;;1.67;98.08
21781;BME280;52576;53.614;9.894;2023-12-07T09:26:42;101754.25;;;1.69;97.99
21781;BME280;52576;53.614;9.894;2023-12-07T09:28:46;101745.63;;;1.70;98.01
21781;BME280;52576;53.614;9.894;2023-12-07T09:30:49;101749.91;;;1.72;97.69
21781;BME280;52576;53.614;9.894;2023-12-07T09:32:54;101750.75;;;1.74;97.67
21781;BME280;52576;53.614;9.894;2023-12-07T09:34:58;101749.00;;;1.74;97.66
21781;BME280;52576;53.614;9.894;2023-12-07T09:37:07;101751.59;;;1.74;97.44
21781;BME280;52576;53.614;9.894;2023-12-07T09:39:11;101759.34;;;1.76;97.46
21781;BME280;52576;53.614;9.894;2023-12-07T09:41:14;101749.81;;;1.78;97.38
21781;BME280;52576;53.614;9.894;2023-12-07T09:43:17;101750.66;;;1.80;97.17
21781;BME280;52576;53.614;9.894;2023-12-07T09:45:21;101752.38;;;1.81;97.02
21781;BME280;52576;53.614;9.894;2023-12-07T09:47:26;101753.16;;;1.84;96.93
21781;BME280;52576;53.614;9.894;2023-12-07T09:49:39;101740.19;;;1.86;96.92
21781;BME280;52576;53.614;9.894;2023-12-07T09:51:43;101749.63;;;1.90;96.84
21781;BME280;52576;53.614;9.894;2023-12-07T09:53:48;101753.88;;;1.94;96.71
21781;BME280;52576;53.614;9.894;2023-12-07T09:55:55;101755.53;;;1.98;96.61
21781;BME280;52576;53.614;9.894;2023-12-07T09:57:59;101755.50;;;2.01;96.59
21781;BME280;52576;53.614;9.894;2023-12-07T10:00:03;101760.63;;;2.04;96.52
21781;BME280;52576;53.614;9.894;2023-12-07T10:02:09;101759.66;;;2.08;96.42
21781;BME280;52576;53.614;9.894;2023-12-07T10:04:15;101758.78;;;2.09;96.29
21781;BME280;52576;53.614;9.894;2023-12-07T10:06:20;101766.53;;;2.11;96.48
21781;BME280;52576;53.614;9.894;2023-12-07T10:08:27;101770.84;;;2.10;96.18
21781;BME280;52576;53.614;9.894;2023-12-07T10:10:29;101773.44;;;2.09;96.18
21781;BME280;52576;53.614;9.894;2023-12-07T10:12:34;101770.91;;;2.07;95.91
21781;BME280;52576;53.614;9.894;2023-12-07T10:14:38;101769.25;;;2.03;95.74
21781;BME280;52576;53.614;9.894;2023-12-07T10:16:52;101764.19;;;1.97;95.67
21781;BME280;52576;53.614;9.894;2023-12-07T10:18:57;101771.09;;;1.95;95.45
21781;BME280;52576;53.614;9.894;2023-12-07T10:21:33;101769.44;;;1.91;95.55
21781;BME280;52576;53.614;9.894;2023-12-07T10:23:36;101770.31;;;1.90;95.31
21781;BME280;52576;53.614;9.894;2023-12-07T10:25:41;101766.00;;;1.89;95.28
21781;BME280;52576;53.614;9.894;2023-12-07T10:27:45;101767.75;;;1.87;95.41
21781;BME280;52576;53.614;9.894;2023-12-07T10:29:49;101767.75;;;1.87;95.38
21781;BME280;52576;53.614;9.894;2023-12-07T10:31:59;101773.78;;;1.87;95.36
21781;BME280;52576;53.614;9.894;2023-12-07T10:34:03;101767.75;;;1.87;95.56
21781;BME280;52576;53.614;9.894;2023-12-07T10:36:07;101766.00;;;1.89;95.53
21781;BME280;52576;53.614;9.894;2023-12-07T10:38:12;101765.16;;;1.88;95.76
21781;BME280;52576;53.614;9.894;2023-12-07T10:40:15;101771.22;;;1.86;95.45
21781;BME280;52576;53.614;9.894;2023-12-07T10:42:23;101757.47;;;1.84;95.57
21781;BME280;52576;53.614;9.894;2023-12-07T10:44:28;101766.94;;;1.85;95.67
21781;BME280;52576;53.614;9.894;2023-12-07T10:46:32;101762.63;;;1.85;95.63
21781;BME280;52576;53.614;9.894;2023-12-07T10:48:36;101763.47;;;1.86;95.42
21781;BME280;52576;53.614;9.894;2023-12-07T10:50:41;101763.47;;;1.86;95.50
21781;BME280;52576;53.614;9.894;2023-12-07T10:52:51;101767.75;;;1.87;95.51
21781;BME280;52576;53.614;9.894;2023-12-07T10:55:02;101766.00;;;1.89;95.67